createdAt,value
2022-10-11T00:10:01.199Z,12.23
2022-10-11T00:15:05.619Z,12.28
2022-10-11T00:20:08.796Z,12.28
2022-10-11T00:25:13.142Z,12.02
2022-10-11T00:30:16.099Z,11.89
2022-10-11T00:35:19.152Z,11.74
2022-10-11T00:40:21.999Z,11.66
2022-10-11T00:45:27.699Z,12.13
2022-10-11T00:50:33.654Z,12.22
2022-10-11T00:55:44.276Z,12.36
2022-10-11T01:01:12.322Z,12.29
2022-10-11T01:06:15.123Z,12.07
2022-10-11T01:11:21.444Z,12.06
2022-10-11T01:42:44.662Z,11.65
2022-10-11T01:47:47.782Z,11.90
2022-10-11T01:52:51.512Z,11.83
2022-10-11T02:04:49.958Z,12.05
2022-10-11T02:10:18.740Z,12.25
2022-10-11T02:15:23.788Z,10.34
2022-10-11T02:20:29.345Z,12.02
2022-10-11T02:25:37.335Z,11.91
2022-10-11T02:30:43.138Z,11.71
2022-10-11T02:35:51.348Z,11.19
2022-10-11T02:41:08.196Z,11.41
2022-10-11T02:46:12.209Z,10.42
2022-10-11T02:51:15.982Z,11.42
2022-10-11T02:56:18.846Z,10.65
2022-10-11T03:01:32.581Z,10.33
2022-10-11T03:06:36.608Z,11.00
2022-10-11T03:11:40.452Z,10.60
2022-10-11T03:16:43.348Z,10.36
2022-10-11T03:21:46.152Z,10.00
2022-10-11T03:31:56.280Z,11.03
2022-10-11T03:36:59.738Z,11.45
2022-10-11T03:42:03.261Z,11.09
2022-10-11T03:47:06.987Z,10.97
2022-10-11T03:52:10.991Z,9.71
2022-10-11T03:57:14.628Z,11.23
2022-10-11T04:02:18.154Z,11.47
2022-10-11T04:07:21.631Z,10.64
2022-10-11T04:12:25.369Z,11.27
2022-10-11T04:17:29.022Z,11.41
2022-10-11T04:22:33.302Z,11.63
2022-10-11T04:27:36.887Z,11.23
2022-10-11T04:32:40.535Z,10.89
2022-10-11T04:37:44.026Z,11.57
2022-10-11T04:42:47.553Z,11.37
2022-10-11T04:47:51.220Z,11.74
2022-10-11T04:52:54.683Z,11.28
2022-10-11T04:57:58.500Z,11.64
2022-10-11T05:03:02.001Z,11.23
2022-10-11T05:08:05.756Z,11.60
2022-10-11T05:13:09.497Z,11.60
2022-10-11T05:18:13.103Z,11.92
2022-10-11T05:23:16.883Z,11.43
2022-10-11T05:28:20.546Z,11.86
2022-10-11T05:33:24.411Z,11.97
2022-10-11T05:38:28.512Z,11.82
2022-10-11T05:43:32.778Z,10.68
2022-10-11T05:48:36.363Z,11.35
2022-10-11T05:53:40.695Z,11.59
2022-10-11T05:58:44.361Z,12.05
2022-10-11T06:03:48.459Z,12.40
2022-10-11T06:08:52.233Z,12.41
2022-10-11T06:13:58.811Z,12.14
2022-10-11T06:19:02.276Z,12.19
2022-10-11T06:24:06.296Z,12.48
2022-10-11T06:29:10.633Z,12.62
2022-10-11T06:34:14.147Z,12.06
2022-10-11T06:39:17.612Z,12.56
2022-10-11T06:44:21.225Z,12.10
2022-10-11T06:49:25.488Z,12.81
2022-10-11T06:54:29.127Z,12.67
2022-10-11T06:59:33.156Z,11.77
2022-10-11T07:04:36.857Z,13.04
2022-10-11T07:09:40.460Z,12.04
2022-10-11T07:14:44.239Z,13.22
2022-10-11T07:19:48.453Z,14.20
2022-10-11T07:24:52.190Z,14.32
2022-10-11T07:29:55.653Z,15.13
2022-10-11T07:34:59.351Z,15.55
2022-10-11T07:40:02.836Z,16.00
2022-10-11T07:45:07.600Z,16.50
2022-10-11T07:50:11.095Z,15.46
2022-10-11T07:55:14.626Z,16.35
2022-10-11T08:00:18.523Z,17.04
2022-10-11T08:05:22.126Z,16.39
2022-10-11T08:10:29.500Z,17.24
2022-10-11T08:15:34.008Z,17.36
2022-10-11T08:20:40.579Z,17.59
2022-10-11T08:25:48.734Z,17.71
2022-10-11T08:30:54.592Z,18.16
2022-10-11T08:35:58.269Z,18.45
2022-10-11T08:41:03.036Z,19.16
2022-10-11T08:46:09.640Z,19.08
2022-10-11T08:51:23.032Z,19.84
2022-10-11T08:56:28.009Z,20.03
2022-10-11T09:01:32.606Z,20.29
2022-10-11T09:06:45.084Z,20.54
2022-10-11T09:11:55.371Z,20.97
2022-10-11T09:17:14.194Z,21.09
2022-10-11T09:22:48.167Z,21.59
2022-10-11T09:28:14.099Z,21.87
2022-10-11T09:33:24.864Z,21.49
2022-10-11T09:43:13.915Z,21.81
2022-10-11T09:48:33.830Z,22.03
2022-10-11T09:54:01.833Z,21.69
2022-10-11T09:59:10.050Z,22.31
2022-10-11T10:04:17.883Z,22.39
2022-10-11T10:09:28.814Z,22.79
2022-10-11T10:14:32.640Z,22.41
2022-10-11T10:19:45.195Z,23.20
2022-10-11T10:24:50.257Z,22.88
2022-10-11T10:30:03.903Z,22.91
2022-10-11T10:35:16.019Z,22.10
2022-10-11T11:08:38.373Z,22.17
2022-10-11T11:13:55.039Z,22.36
2022-10-11T11:19:25.470Z,21.74
2022-10-11T11:24:48.566Z,21.84
2022-10-11T11:30:04.445Z,22.08
2022-10-11T11:35:28.431Z,21.89
2022-10-11T11:40:36.272Z,22.31
2022-10-11T11:46:15.511Z,21.94
2022-10-11T11:51:30.462Z,21.72
2022-10-11T11:57:04.818Z,21.96
2022-10-11T12:02:28.840Z,22.14
2022-10-11T12:07:31.848Z,22.06
2022-10-11T12:12:38.302Z,21.80
2022-10-11T12:17:56.721Z,21.96
2022-10-11T12:23:01.814Z,21.77
2022-10-11T12:28:40.881Z,22.15
2022-10-11T12:33:43.653Z,21.98
2022-10-11T12:38:46.490Z,21.83
2022-10-11T12:43:49.129Z,21.91
2022-10-11T12:49:27.748Z,21.95
2022-10-11T12:54:46.628Z,21.74
2022-10-11T12:59:50.322Z,21.76
2022-10-11T13:04:53.204Z,21.69
2022-10-11T13:09:56.552Z,22.00
2022-10-11T13:15:09.328Z,21.76
2022-10-11T13:20:18.474Z,21.73
2022-10-11T13:25:27.778Z,21.53
2022-10-11T13:30:33.171Z,21.51
2022-10-11T13:35:38.688Z,21.40
2022-10-11T13:40:41.542Z,21.43
2022-10-11T13:45:44.354Z,21.20
2022-10-11T13:51:09.326Z,21.45
2022-10-11T13:56:13.355Z,21.29
2022-10-11T14:01:19.512Z,21.46
2022-10-11T14:06:22.524Z,21.09
2022-10-11T14:11:40.433Z,20.99
2022-10-11T14:16:56.922Z,21.00
2022-10-11T14:21:59.612Z,20.71
2022-10-11T14:27:06.589Z,20.66
2022-10-11T14:32:30.967Z,20.52
2022-10-11T14:37:33.638Z,20.61
2022-10-11T14:42:36.444Z,20.78
2022-10-11T14:47:43.005Z,20.71
2022-10-11T14:52:47.613Z,20.74
2022-10-11T14:57:50.660Z,20.48
2022-10-11T15:02:54.260Z,20.19
2022-10-11T15:07:58.632Z,19.79
2022-10-11T15:13:07.858Z,19.85
2022-10-11T15:18:14.591Z,19.73
2022-10-11T15:23:17.986Z,19.53
2022-10-11T15:28:30.444Z,19.34
2022-10-11T15:33:33.311Z,19.38
2022-10-11T15:38:36.051Z,19.19
2022-10-11T15:43:38.883Z,19.06
2022-10-11T15:48:41.593Z,18.72
2022-10-11T15:53:44.604Z,18.61
2022-10-11T15:58:47.363Z,18.62
2022-10-11T16:03:51.643Z,18.43
2022-10-11T16:08:54.460Z,18.49
2022-10-11T16:13:57.150Z,17.97
2022-10-11T16:19:00.000Z,17.31
2022-10-11T16:24:03.591Z,17.32
2022-10-11T16:29:06.585Z,17.16
2022-10-11T16:34:09.360Z,17.29
2022-10-11T16:39:16.480Z,17.02
2022-10-11T16:44:21.863Z,16.45
2022-10-11T16:49:29.379Z,16.38
2022-10-11T16:54:32.968Z,16.32
2022-10-11T16:59:35.918Z,16.46
2022-10-11T17:04:38.555Z,16.74
2022-10-11T17:09:44.395Z,17.02
2022-10-11T17:14:47.905Z,17.32
2022-10-11T17:19:50.626Z,17.20
2022-10-11T17:24:53.720Z,17.29
2022-10-11T17:29:56.675Z,17.25
2022-10-11T17:35:01.589Z,17.45
2022-10-11T17:40:05.072Z,17.69
2022-10-11T17:45:08.455Z,17.85
2022-10-11T17:50:12.135Z,17.88
2022-10-11T17:55:15.072Z,17.74
2022-10-11T18:00:18.162Z,17.75
2022-10-11T18:05:20.975Z,17.61
2022-10-11T18:10:24.335Z,17.82
2022-10-11T18:15:30.629Z,17.55
2022-10-11T18:20:37.513Z,17.76
2022-10-11T18:25:40.855Z,17.65
2022-10-11T18:30:46.613Z,17.63
2022-10-11T18:35:49.354Z,17.64
2022-10-11T18:40:52.115Z,17.46
2022-10-11T18:46:06.776Z,17.55
2022-10-11T18:51:11.173Z,17.55
2022-10-11T18:56:15.345Z,17.29
2022-10-11T19:01:24.264Z,17.19
2022-10-11T19:06:30.244Z,16.41
2022-10-11T19:11:33.257Z,16.16
2022-10-11T19:16:41.169Z,16.64
2022-10-11T19:21:43.993Z,16.23
2022-10-11T19:26:47.938Z,16.28
2022-10-11T19:31:59.279Z,15.90
2022-10-11T19:37:02.093Z,15.71
2022-10-11T19:42:07.193Z,15.52
2022-10-11T19:47:10.925Z,15.68
2022-10-11T19:52:14.613Z,15.80
2022-10-11T19:57:17.707Z,15.51
2022-10-11T20:02:20.469Z,16.33
2022-10-11T20:07:23.246Z,15.54
2022-10-11T20:12:29.554Z,16.03
2022-10-11T20:17:52.648Z,16.03
2022-10-11T20:22:58.082Z,16.12
2022-10-11T20:28:00.834Z,15.93
2022-10-11T20:33:04.600Z,15.80
2022-10-11T20:39:11.463Z,16.06
2022-10-11T20:44:20.519Z,15.70
2022-10-11T20:49:23.408Z,15.48
2022-10-11T20:54:26.383Z,15.74
2022-10-11T20:59:29.126Z,15.81
2022-10-11T21:04:31.931Z,15.81
2022-10-11T21:09:34.947Z,15.67
2022-10-11T21:14:37.612Z,15.51
2022-10-11T21:26:40.686Z,15.13
2022-10-11T21:31:43.613Z,15.52
2022-10-11T21:36:46.401Z,14.60
2022-10-11T21:41:49.345Z,14.85
2022-10-11T21:47:12.299Z,14.66
2022-10-11T21:52:15.189Z,15.12
2022-10-11T21:57:17.912Z,14.09
2022-10-11T22:02:20.717Z,14.46
2022-10-11T22:07:23.641Z,14.78
2022-10-11T22:12:26.436Z,14.34
2022-10-11T22:17:29.171Z,14.48
2022-10-11T22:22:31.925Z,14.41
2022-10-11T22:27:35.016Z,14.47
2022-10-11T22:32:38.162Z,14.35
2022-10-11T22:37:41.128Z,14.01
2022-10-11T22:43:08.723Z,14.28
2022-10-11T22:48:12.928Z,14.54
2022-10-11T22:53:23.547Z,14.79
2022-10-11T22:58:26.454Z,14.97
2022-10-11T23:03:29.414Z,15.12
2022-10-11T23:08:32.280Z,15.16
2022-10-11T23:13:35.652Z,14.61
2022-10-11T23:18:39.429Z,15.65
2022-10-11T23:23:42.209Z,14.67
2022-10-11T23:28:45.583Z,15.53
2022-10-11T23:33:48.927Z,15.40
2022-10-11T23:38:54.090Z,15.28
2022-10-11T23:44:21.508Z,15.13
2022-10-11T23:49:24.386Z,14.94
2022-10-11T23:54:27.164Z,14.48
2022-10-11T23:59:30.071Z,15.16
